sensor_id;sensor_type;location;lat;lon;timestamp;P1;durP1;ratioP1;P2;durP2;ratioP2
20456;SDS011;10387;51.102;6.848;2023-07-16T00:02:16;2.60;;;2.40;;
20456;SDS011;10387;51.102;6.848;2023-07-16T00:04:42;3.90;;;3.10;;
20456;SDS011;10387;51.102;6.848;2023-07-16T00:07:08;4.63;;;2.70;;
20456;SDS011;10387;51.102;6.848;2023-07-16T00:09:35;3.20;;;2.17;;
20456;SDS011;10387;51.102;6.848;2023-07-16T00:12:01;4.50;;;2.77;;
20456;SDS011;10387;51.102;6.848;2023-07-16T00:14:27;3.63;;;2.57;;
20456;SDS011;10387;51.102;6.848;2023-07-16T00:16:53;4.80;;;2.40;;
20456;SDS011;10387;51.102;6.848;2023-07-16T00:19:22;3.20;;;2.53;;
20456;SDS011;10387;51.102;6.848;2023-07-16T00:21:48;4.13;;;2.57;;
20456;SDS011;10387;51.102;6.848;2023-07-16T00:24:20;3.13;;;2.50;;
20456;SDS011;10387;51.102;6.848;2023-07-16T00:26:52;3.57;;;2.40;;
20456;SDS011;10387;51.102;6.848;2023-07-16T00:29:18;3.57;;;2.30;;
20456;SDS011;10387;51.102;6.848;2023-07-16T00:32:09;3.70;;;2.40;;
20456;SDS011;10387;51.102;6.848;2023-07-16T00:34:36;5.40;;;2.23;;
20456;SDS011;10387;51.102;6.848;2023-07-16T00:37:02;2.83;;;2.33;;
20456;SDS011;10387;51.102;6.848;2023-07-16T00:39:28;4.40;;;2.70;;
20456;SDS011;10387;51.102;6.848;2023-07-16T00:41:55;4.73;;;2.50;;
20456;SDS011;10387;51.102;6.848;2023-07-16T00:44:21;4.30;;;2.60;;
20456;SDS011;10387;51.102;6.848;2023-07-16T00:46:48;5.80;;;2.50;;
20456;SDS011;10387;51.102;6.848;2023-07-16T00:49:14;5.50;;;2.60;;
20456;SDS011;10387;51.102;6.848;2023-07-16T00:51:40;4.23;;;2.53;;
20456;SDS011;10387;51.102;6.848;2023-07-16T00:54:06;3.70;;;2.30;;
20456;SDS011;10387;51.102;6.848;2023-07-16T00:56:33;7.50;;;2.80;;
20456;SDS011;10387;51.102;6.848;2023-07-16T00:58:59;5.00;;;2.37;;
20456;SDS011;10387;51.102;6.848;2023-07-16T01:01:25;4.10;;;2.53;;
20456;SDS011;10387;51.102;6.848;2023-07-16T01:03:51;3.73;;;2.23;;
20456;SDS011;10387;51.102;6.848;2023-07-16T01:06:20;4.83;;;2.50;;
20456;SDS011;10387;51.102;6.848;2023-07-16T01:08:49;4.80;;;2.77;;
20456;SDS011;10387;51.102;6.848;2023-07-16T01:11:18;4.17;;;2.77;;
20456;SDS011;10387;51.102;6.848;2023-07-16T01:13:45;3.30;;;2.40;;
20456;SDS011;10387;51.102;6.848;2023-07-16T01:16:21;3.20;;;2.77;;
20456;SDS011;10387;51.102;6.848;2023-07-16T01:18:49;4.53;;;2.43;;
20456;SDS011;10387;51.102;6.848;2023-07-16T01:21:17;5.87;;;3.23;;
20456;SDS011;10387;51.102;6.848;2023-07-16T01:31:31;4.13;;;3.00;;
20456;SDS011;10387;51.102;6.848;2023-07-16T01:33:57;3.53;;;2.50;;
20456;SDS011;10387;51.102;6.848;2023-07-16T01:36:24;7.03;;;3.00;;
20456;SDS011;10387;51.102;6.848;2023-07-16T01:38:50;3.77;;;2.63;;
20456;SDS011;10387;51.102;6.848;2023-07-16T01:41:17;4.37;;;2.87;;
20456;SDS011;10387;51.102;6.848;2023-07-16T01:43:43;2.60;;;2.40;;
20456;SDS011;10387;51.102;6.848;2023-07-16T01:46:09;5.23;;;2.70;;
20456;SDS011;10387;51.102;6.848;2023-07-16T01:48:37;5.13;;;3.27;;
20456;SDS011;10387;51.102;6.848;2023-07-16T01:51:04;6.97;;;2.73;;
20456;SDS011;10387;51.102;6.848;2023-07-16T01:53:30;6.00;;;3.10;;
20456;SDS011;10387;51.102;6.848;2023-07-16T01:55:57;4.57;;;2.70;;
20456;SDS011;10387;51.102;6.848;2023-07-16T01:58:23;4.10;;;2.80;;
20456;SDS011;10387;51.102;6.848;2023-07-16T02:00:49;4.73;;;2.97;;
20456;SDS011;10387;51.102;6.848;2023-07-16T02:03:16;3.33;;;2.83;;
20456;SDS011;10387;51.102;6.848;2023-07-16T02:05:42;4.33;;;2.83;;
20456;SDS011;10387;51.102;6.848;2023-07-16T02:08:09;5.43;;;2.93;;
20456;SDS011;10387;51.102;6.848;2023-07-16T02:10:35;4.53;;;3.00;;
20456;SDS011;10387;51.102;6.848;2023-07-16T02:13:01;7.33;;;2.60;;
20456;SDS011;10387;51.102;6.848;2023-07-16T02:15:28;4.77;;;2.53;;
20456;SDS011;10387;51.102;6.848;2023-07-16T02:17:54;4.63;;;2.57;;
20456;SDS011;10387;51.102;6.848;2023-07-16T02:20:20;5.07;;;2.43;;
20456;SDS011;10387;51.102;6.848;2023-07-16T02:22:46;6.60;;;2.73;;
20456;SDS011;10387;51.102;6.848;2023-07-16T02:25:13;3.10;;;2.10;;
20456;SDS011;10387;51.102;6.848;2023-07-16T02:27:39;5.10;;;2.40;;
20456;SDS011;10387;51.102;6.848;2023-07-16T02:30:05;6.20;;;2.43;;
20456;SDS011;10387;51.102;6.848;2023-07-16T02:32:32;5.13;;;2.03;;
20456;SDS011;10387;51.102;6.848;2023-07-16T02:35:00;5.37;;;2.67;;
20456;SDS011;10387;51.102;6.848;2023-07-16T02:37:27;4.90;;;2.30;;
20456;SDS011;10387;51.102;6.848;2023-07-16T02:39:53;3.40;;;2.30;;
20456;SDS011;10387;51.102;6.848;2023-07-16T02:42:20;4.73;;;2.17;;
20456;SDS011;10387;51.102;6.848;2023-07-16T02:44:46;3.67;;;2.10;;
20456;SDS011;10387;51.102;6.848;2023-07-16T02:47:12;4.77;;;2.43;;
20456;SDS011;10387;51.102;6.848;2023-07-16T02:49:38;5.20;;;2.77;;
20456;SDS011;10387;51.102;6.848;2023-07-16T02:52:05;5.83;;;2.20;;
20456;SDS011;10387;51.102;6.848;2023-07-16T02:54:32;5.33;;;2.40;;
20456;SDS011;10387;51.102;6.848;2023-07-16T02:56:58;5.07;;;2.40;;
20456;SDS011;10387;51.102;6.848;2023-07-16T02:59:26;6.00;;;2.30;;
20456;SDS011;10387;51.102;6.848;2023-07-16T03:01:53;6.67;;;2.50;;
20456;SDS011;10387;51.102;6.848;2023-07-16T03:04:19;6.20;;;2.40;;
20456;SDS011;10387;51.102;6.848;2023-07-16T03:06:45;8.13;;;2.80;;
20456;SDS011;10387;51.102;6.848;2023-07-16T03:09:11;4.73;;;2.43;;
20456;SDS011;10387;51.102;6.848;2023-07-16T03:11:38;3.53;;;2.23;;
20456;SDS011;10387;51.102;6.848;2023-07-16T03:14:04;5.93;;;2.50;;
20456;SDS011;10387;51.102;6.848;2023-07-16T03:16:30;3.93;;;2.50;;
20456;SDS011;10387;51.102;6.848;2023-07-16T03:18:56;4.53;;;2.20;;
20456;SDS011;10387;51.102;6.848;2023-07-16T03:21:22;3.97;;;2.40;;
20456;SDS011;10387;51.102;6.848;2023-07-16T03:23:48;6.83;;;2.67;;
20456;SDS011;10387;51.102;6.848;2023-07-16T03:26:14;6.67;;;2.57;;
20456;SDS011;10387;51.102;6.848;2023-07-16T03:28:40;8.80;;;2.30;;
20456;SDS011;10387;51.102;6.848;2023-07-16T03:31:09;6.50;;;2.53;;
20456;SDS011;10387;51.102;6.848;2023-07-16T03:33:38;4.03;;;2.13;;
20456;SDS011;10387;51.102;6.848;2023-07-16T03:36:06;5.00;;;2.27;;
20456;SDS011;10387;51.102;6.848;2023-07-16T03:38:32;5.13;;;2.70;;
20456;SDS011;10387;51.102;6.848;2023-07-16T03:40:59;4.03;;;2.17;;
20456;SDS011;10387;51.102;6.848;2023-07-16T03:43:26;5.60;;;2.30;;
20456;SDS011;10387;51.102;6.848;2023-07-16T03:45:59;6.53;;;2.87;;
20456;SDS011;10387;51.102;6.848;2023-07-16T03:48:25;6.30;;;2.87;;
20456;SDS011;10387;51.102;6.848;2023-07-16T03:50:51;4.07;;;2.73;;
20456;SDS011;10387;51.102;6.848;2023-07-16T03:53:17;4.90;;;2.60;;
20456;SDS011;10387;51.102;6.848;2023-07-16T03:55:44;6.70;;;2.30;;
20456;SDS011;10387;51.102;6.848;2023-07-16T03:58:10;5.20;;;2.67;;
20456;SDS011;10387;51.102;6.848;2023-07-16T04:00:36;4.63;;;1.97;;
20456;SDS011;10387;51.102;6.848;2023-07-16T04:03:02;3.73;;;2.10;;
20456;SDS011;10387;51.102;6.848;2023-07-16T04:05:28;4.87;;;2.67;;
20456;SDS011;10387;51.102;6.848;2023-07-16T04:07:54;4.77;;;2.30;;
20456;SDS011;10387;51.102;6.848;2023-07-16T04:10:21;3.40;;;2.60;;
20456;SDS011;10387;51.102;6.848;2023-07-16T04:12:47;4.33;;;2.20;;
20456;SDS011;10387;51.102;6.848;2023-07-16T04:15:13;3.00;;;2.17;;
20456;SDS011;10387;51.102;6.848;2023-07-16T04:17:39;8.97;;;3.20;;
20456;SDS011;10387;51.102;6.848;2023-07-16T04:20:05;4.47;;;2.60;;
20456;SDS011;10387;51.102;6.848;2023-07-16T04:22:32;3.83;;;2.27;;
20456;SDS011;10387;51.102;6.848;2023-07-16T04:24:58;6.13;;;2.50;;
20456;SDS011;10387;51.102;6.848;2023-07-16T04:27:24;5.90;;;2.60;;
20456;SDS011;10387;51.102;6.848;2023-07-16T04:29:50;5.27;;;2.70;;
20456;SDS011;10387;51.102;6.848;2023-07-16T04:32:17;4.03;;;2.20;;
20456;SDS011;10387;51.102;6.848;2023-07-16T04:34:43;6.63;;;3.03;;
20456;SDS011;10387;51.102;6.848;2023-07-16T04:37:09;3.83;;;2.63;;
20456;SDS011;10387;51.102;6.848;2023-07-16T04:39:35;5.13;;;2.60;;
20456;SDS011;10387;51.102;6.848;2023-07-16T04:42:01;8.90;;;3.20;;
20456;SDS011;10387;51.102;6.848;2023-07-16T04:44:27;4.50;;;2.43;;
20456;SDS011;10387;51.102;6.848;2023-07-16T04:46:53;5.00;;;2.53;;
20456;SDS011;10387;51.102;6.848;2023-07-16T04:49:19;4.97;;;2.90;;
20456;SDS011;10387;51.102;6.848;2023-07-16T04:51:45;3.83;;;2.43;;
20456;SDS011;10387;51.102;6.848;2023-07-16T04:54:12;5.07;;;2.87;;
20456;SDS011;10387;51.102;6.848;2023-07-16T04:56:38;4.50;;;2.60;;
20456;SDS011;10387;51.102;6.848;2023-07-16T04:59:05;6.07;;;3.30;;
20456;SDS011;10387;51.102;6.848;2023-07-16T05:01:30;5.30;;;2.70;;
20456;SDS011;10387;51.102;6.848;2023-07-16T05:03:56;7.13;;;2.73;;
20456;SDS011;10387;51.102;6.848;2023-07-16T05:06:22;5.30;;;2.73;;
20456;SDS011;10387;51.102;6.848;2023-07-16T05:08:49;5.87;;;3.03;;
20456;SDS011;10387;51.102;6.848;2023-07-16T05:11:15;5.63;;;3.10;;
20456;SDS011;10387;51.102;6.848;2023-07-16T05:13:41;5.33;;;3.10;;
20456;SDS011;10387;51.102;6.848;2023-07-16T05:16:07;3.47;;;2.63;;
20456;SDS011;10387;51.102;6.848;2023-07-16T05:18:33;6.00;;;3.00;;
20456;SDS011;10387;51.102;6.848;2023-07-16T05:20:59;4.93;;;2.97;;
20456;SDS011;10387;51.102;6.848;2023-07-16T05:23:25;4.83;;;2.97;;
20456;SDS011;10387;51.102;6.848;2023-07-16T05:25:52;7.37;;;3.17;;
20456;SDS011;10387;51.102;6.848;2023-07-16T05:28:18;6.23;;;3.20;;
20456;SDS011;10387;51.102;6.848;2023-07-16T05:30:44;5.37;;;3.23;;
20456;SDS011;10387;51.102;6.848;2023-07-16T05:33:11;6.67;;;3.03;;
20456;SDS011;10387;51.102;6.848;2023-07-16T05:35:37;6.13;;;3.50;;
20456;SDS011;10387;51.102;6.848;2023-07-16T05:38:04;6.57;;;3.20;;
20456;SDS011;10387;51.102;6.848;2023-07-16T05:40:30;4.17;;;3.10;;
20456;SDS011;10387;51.102;6.848;2023-07-16T05:42:56;6.53;;;3.87;;
20456;SDS011;10387;51.102;6.848;2023-07-16T05:45:22;8.00;;;3.60;;
20456;SDS011;10387;51.102;6.848;2023-07-16T05:47:48;6.97;;;3.77;;
20456;SDS011;10387;51.102;6.848;2023-07-16T05:50:14;7.23;;;3.30;;
20456;SDS011;10387;51.102;6.848;2023-07-16T05:52:41;5.60;;;3.63;;
20456;SDS011;10387;51.102;6.848;2023-07-16T05:55:07;7.37;;;3.90;;
20456;SDS011;10387;51.102;6.848;2023-07-16T05:57:33;5.57;;;3.53;;
20456;SDS011;10387;51.102;6.848;2023-07-16T05:59:59;6.30;;;3.60;;
20456;SDS011;10387;51.102;6.848;2023-07-16T06:02:25;5.93;;;3.73;;
20456;SDS011;10387;51.102;6.848;2023-07-16T06:04:51;7.80;;;4.17;;
20456;SDS011;10387;51.102;6.848;2023-07-16T06:07:17;7.77;;;4.03;;
20456;SDS011;10387;51.102;6.848;2023-07-16T06:09:44;6.77;;;4.03;;
20456;SDS011;10387;51.102;6.848;2023-07-16T06:12:10;9.07;;;4.40;;
20456;SDS011;10387;51.102;6.848;2023-07-16T06:14:36;6.10;;;4.13;;
20456;SDS011;10387;51.102;6.848;2023-07-16T06:17:02;6.60;;;4.27;;
20456;SDS011;10387;51.102;6.848;2023-07-16T06:19:29;6.70;;;4.07;;
20456;SDS011;10387;51.102;6.848;2023-07-16T06:21:55;6.90;;;4.57;;
20456;SDS011;10387;51.102;6.848;2023-07-16T06:24:21;5.03;;;4.27;;
20456;SDS011;10387;51.102;6.848;2023-07-16T06:26:47;8.17;;;4.97;;
20456;SDS011;10387;51.102;6.848;2023-07-16T06:29:13;9.37;;;4.70;;
20456;SDS011;10387;51.102;6.848;2023-07-16T06:31:42;8.53;;;4.67;;
20456;SDS011;10387;51.102;6.848;2023-07-16T06:34:09;7.20;;;4.80;;
20456;SDS011;10387;51.102;6.848;2023-07-16T06:36:36;8.10;;;5.00;;
20456;SDS011;10387;51.102;6.848;2023-07-16T06:39:02;7.23;;;4.63;;
20456;SDS011;10387;51.102;6.848;2023-07-16T06:41:29;9.63;;;5.03;;
20456;SDS011;10387;51.102;6.848;2023-07-16T06:43:58;6.57;;;4.90;;
20456;SDS011;10387;51.102;6.848;2023-07-16T06:46:24;7.53;;;5.23;;
20456;SDS011;10387;51.102;6.848;2023-07-16T06:48:50;7.63;;;5.57;;
20456;SDS011;10387;51.102;6.848;2023-07-16T06:51:16;7.40;;;4.87;;
20456;SDS011;10387;51.102;6.848;2023-07-16T06:53:42;6.57;;;5.20;;
20456;SDS011;10387;51.102;6.848;2023-07-16T06:56:08;9.27;;;5.60;;
20456;SDS011;10387;51.102;6.848;2023-07-16T06:58:35;7.07;;;5.10;;
20456;SDS011;10387;51.102;6.848;2023-07-16T07:01:01;9.10;;;5.83;;
20456;SDS011;10387;51.102;6.848;2023-07-16T07:03:27;8.23;;;5.27;;
20456;SDS011;10387;51.102;6.848;2023-07-16T07:05:53;8.90;;;5.57;;
20456;SDS011;10387;51.102;6.848;2023-07-16T07:08:19;9.23;;;5.90;;
20456;SDS011;10387;51.102;6.848;2023-07-16T07:10:46;7.30;;;4.67;;
20456;SDS011;10387;51.102;6.848;2023-07-16T07:13:12;8.37;;;5.20;;
20456;SDS011;10387;51.102;6.848;2023-07-16T07:15:41;8.27;;;5.10;;
20456;SDS011;10387;51.102;6.848;2023-07-16T07:18:11;7.77;;;5.13;;
20456;SDS011;10387;51.102;6.848;2023-07-16T07:20:40;8.67;;;5.43;;
20456;SDS011;10387;51.102;6.848;2023-07-16T07:23:06;10.30;;;5.40;;
20456;SDS011;10387;51.102;6.848;2023-07-16T07:25:33;9.40;;;5.60;;
20456;SDS011;10387;51.102;6.848;2023-07-16T07:27:59;9.50;;;5.30;;
20456;SDS011;10387;51.102;6.848;2023-07-16T07:30:25;7.03;;;5.00;;
20456;SDS011;10387;51.102;6.848;2023-07-16T07:32:51;12.03;;;5.77;;
20456;SDS011;10387;51.102;6.848;2023-07-16T07:35:17;5.90;;;4.70;;
20456;SDS011;10387;51.102;6.848;2023-07-16T07:37:43;7.80;;;4.80;;
20456;SDS011;10387;51.102;6.848;2023-07-16T07:40:09;8.17;;;5.57;;
20456;SDS011;10387;51.102;6.848;2023-07-16T07:42:35;9.77;;;5.50;;
20456;SDS011;10387;51.102;6.848;2023-07-16T07:45:01;8.73;;;5.00;;
20456;SDS011;10387;51.102;6.848;2023-07-16T07:47:29;8.33;;;5.43;;
20456;SDS011;10387;51.102;6.848;2023-07-16T07:49:56;7.77;;;5.23;;
20456;SDS011;10387;51.102;6.848;2023-07-16T07:52:22;10.67;;;5.60;;
20456;SDS011;10387;51.102;6.848;2023-07-16T07:54:48;9.20;;;5.50;;
20456;SDS011;10387;51.102;6.848;2023-07-16T07:57:15;6.10;;;4.83;;
20456;SDS011;10387;51.102;6.848;2023-07-16T07:59:41;7.27;;;4.97;;
20456;SDS011;10387;51.102;6.848;2023-07-16T08:02:09;7.97;;;5.63;;
20456;SDS011;10387;51.102;6.848;2023-07-16T08:04:37;7.43;;;5.27;;
20456;SDS011;10387;51.102;6.848;2023-07-16T08:07:03;8.33;;;5.37;;
20456;SDS011;10387;51.102;6.848;2023-07-16T08:09:29;6.50;;;4.57;;
20456;SDS011;10387;51.102;6.848;2023-07-16T08:11:55;6.57;;;4.60;;
20456;SDS011;10387;51.102;6.848;2023-07-16T08:14:21;5.90;;;4.33;;
20456;SDS011;10387;51.102;6.848;2023-07-16T08:16:48;7.03;;;4.67;;
20456;SDS011;10387;51.102;6.848;2023-07-16T08:19:14;6.90;;;4.50;;
20456;SDS011;10387;51.102;6.848;2023-07-16T08:21:43;6.07;;;4.10;;
20456;SDS011;10387;51.102;6.848;2023-07-16T08:24:09;7.00;;;4.37;;
20456;SDS011;10387;51.102;6.848;2023-07-16T08:26:35;8.43;;;4.97;;
20456;SDS011;10387;51.102;6.848;2023-07-16T08:29:01;7.83;;;4.20;;
20456;SDS011;10387;51.102;6.848;2023-07-16T08:31:28;10.03;;;4.73;;
20456;SDS011;10387;51.102;6.848;2023-07-16T08:33:54;7.23;;;4.60;;
20456;SDS011;10387;51.102;6.848;2023-07-16T08:36:21;8.60;;;4.80;;
20456;SDS011;10387;51.102;6.848;2023-07-16T08:38:47;7.53;;;4.90;;
20456;SDS011;10387;51.102;6.848;2023-07-16T08:41:14;5.90;;;4.03;;
20456;SDS011;10387;51.102;6.848;2023-07-16T08:43:40;5.33;;;4.23;;
20456;SDS011;10387;51.102;6.848;2023-07-16T08:46:06;7.10;;;4.17;;
20456;SDS011;10387;51.102;6.848;2023-07-16T08:48:34;7.40;;;4.27;;
20456;SDS011;10387;51.102;6.848;2023-07-16T08:51:01;5.80;;;4.33;;
20456;SDS011;10387;51.102;6.848;2023-07-16T08:53:28;5.60;;;3.93;;
20456;SDS011;10387;51.102;6.848;2023-07-16T08:55:55;5.07;;;3.60;;
20456;SDS011;10387;51.102;6.848;2023-07-16T08:58:23;7.07;;;4.20;;
20456;SDS011;10387;51.102;6.848;2023-07-16T09:00:49;5.67;;;3.63;;
20456;SDS011;10387;51.102;6.848;2023-07-16T09:03:15;5.63;;;3.87;;
20456;SDS011;10387;51.102;6.848;2023-07-16T09:05:42;3.90;;;3.50;;
20456;SDS011;10387;51.102;6.848;2023-07-16T09:08:08;6.80;;;4.10;;
20456;SDS011;10387;51.102;6.848;2023-07-16T09:10:34;6.70;;;4.80;;
20456;SDS011;10387;51.102;6.848;2023-07-16T09:13:00;4.67;;;3.90;;
20456;SDS011;10387;51.102;6.848;2023-07-16T09:15:27;6.47;;;3.77;;
20456;SDS011;10387;51.102;6.848;2023-07-16T09:17:54;8.07;;;4.37;;
20456;SDS011;10387;51.102;6.848;2023-07-16T09:20:20;5.57;;;3.73;;
20456;SDS011;10387;51.102;6.848;2023-07-16T09:22:49;5.00;;;4.33;;
20456;SDS011;10387;51.102;6.848;2023-07-16T09:25:15;6.10;;;4.03;;
20456;SDS011;10387;51.102;6.848;2023-07-16T09:27:43;5.03;;;2.83;;
20456;SDS011;10387;51.102;6.848;2023-07-16T09:30:14;6.03;;;3.57;;
20456;SDS011;10387;51.102;6.848;2023-07-16T09:32:40;4.37;;;3.43;;
20456;SDS011;10387;51.102;6.848;2023-07-16T09:35:11;5.53;;;3.40;;
20456;SDS011;10387;51.102;6.848;2023-07-16T09:37:38;5.77;;;3.50;;
20456;SDS011;10387;51.102;6.848;2023-07-16T09:40:08;5.30;;;3.70;;
20456;SDS011;10387;51.102;6.848;2023-07-16T09:42:37;5.33;;;3.63;;
20456;SDS011;10387;51.102;6.848;2023-07-16T09:45:08;5.37;;;3.33;;
20456;SDS011;10387;51.102;6.848;2023-07-16T09:47:34;5.27;;;3.30;;
20456;SDS011;10387;51.102;6.848;2023-07-16T09:50:04;4.20;;;3.63;;
20456;SDS011;10387;51.102;6.848;2023-07-16T09:52:31;5.03;;;3.50;;
20456;SDS011;10387;51.102;6.848;2023-07-16T09:54:59;4.73;;;3.30;;
20456;SDS011;10387;51.102;6.848;2023-07-16T09:57:27;4.87;;;3.10;;
20456;SDS011;10387;51.102;6.848;2023-07-16T09:59:54;5.33;;;3.50;;
20456;SDS011;10387;51.102;6.848;2023-07-16T10:02:22;5.50;;;3.77;;
20456;SDS011;10387;51.102;6.848;2023-07-16T10:04:49;4.70;;;3.93;;
20456;SDS011;10387;51.102;6.848;2023-07-16T10:07:22;4.67;;;3.30;;
20456;SDS011;10387;51.102;6.848;2023-07-16T10:09:53;4.50;;;3.70;;
20456;SDS011;10387;51.102;6.848;2023-07-16T10:12:20;5.73;;;3.80;;
20456;SDS011;10387;51.102;6.848;2023-07-16T10:17:20;4.73;;;3.10;;
20456;SDS011;10387;51.102;6.848;2023-07-16T10:19:58;5.90;;;3.07;;
20456;SDS011;10387;51.102;6.848;2023-07-16T10:22:32;5.07;;;3.67;;
20456;SDS011;10387;51.102;6.848;2023-07-16T10:24:59;3.80;;;2.80;;
20456;SDS011;10387;51.102;6.848;2023-07-16T10:27:28;3.90;;;3.17;;
20456;SDS011;10387;51.102;6.848;2023-07-16T10:29:54;6.40;;;3.27;;
20456;SDS011;10387;51.102;6.848;2023-07-16T10:32:21;6.77;;;3.93;;
20456;SDS011;10387;51.102;6.848;2023-07-16T10:34:47;6.60;;;4.10;;
20456;SDS011;10387;51.102;6.848;2023-07-16T10:37:13;7.17;;;3.20;;
20456;SDS011;10387;51.102;6.848;2023-07-16T10:39:46;5.13;;;3.40;;
20456;SDS011;10387;51.102;6.848;2023-07-16T10:42:16;5.93;;;3.37;;
20456;SDS011;10387;51.102;6.848;2023-07-16T10:44:43;12.57;;;6.13;;
20456;SDS011;10387;51.102;6.848;2023-07-16T10:47:11;5.70;;;3.13;;
20456;SDS011;10387;51.102;6.848;2023-07-16T10:49:45;6.47;;;3.53;;
20456;SDS011;10387;51.102;6.848;2023-07-16T10:52:11;3.83;;;3.10;;
20456;SDS011;10387;51.102;6.848;2023-07-16T10:54:39;4.63;;;3.10;;
20456;SDS011;10387;51.102;6.848;2023-07-16T10:57:06;4.43;;;3.17;;
20456;SDS011;10387;51.102;6.848;2023-07-16T10:59:32;5.17;;;3.57;;
20456;SDS011;10387;51.102;6.848;2023-07-16T11:01:58;5.13;;;3.33;;
20456;SDS011;10387;51.102;6.848;2023-07-16T11:04:24;5.27;;;3.50;;
20456;SDS011;10387;51.102;6.848;2023-07-16T11:06:50;3.23;;;2.90;;
20456;SDS011;10387;51.102;6.848;2023-07-16T11:09:17;3.50;;;2.93;;
20456;SDS011;10387;51.102;6.848;2023-07-16T11:11:43;5.27;;;3.47;;
20456;SDS011;10387;51.102;6.848;2023-07-16T11:14:10;5.83;;;3.53;;
20456;SDS011;10387;51.102;6.848;2023-07-16T11:16:36;6.23;;;3.73;;
20456;SDS011;10387;51.102;6.848;2023-07-16T11:19:06;7.00;;;3.53;;
20456;SDS011;10387;51.102;6.848;2023-07-16T11:21:36;5.73;;;3.50;;
20456;SDS011;10387;51.102;6.848;2023-07-16T11:24:11;6.83;;;3.17;;
20456;SDS011;10387;51.102;6.848;2023-07-16T11:26:55;4.90;;;3.20;;
20456;SDS011;10387;51.102;6.848;2023-07-16T11:29:25;5.47;;;3.40;;
20456;SDS011;10387;51.102;6.848;2023-07-16T11:31:52;4.97;;;3.40;;
20456;SDS011;10387;51.102;6.848;2023-07-16T11:34:21;5.73;;;3.10;;
20456;SDS011;10387;51.102;6.848;2023-07-16T11:36:50;5.83;;;3.23;;
20456;SDS011;10387;51.102;6.848;2023-07-16T11:39:18;6.60;;;3.93;;
20456;SDS011;10387;51.102;6.848;2023-07-16T11:41:58;4.03;;;3.63;;
20456;SDS011;10387;51.102;6.848;2023-07-16T11:44:24;4.77;;;3.00;;
20456;SDS011;10387;51.102;6.848;2023-07-16T11:46:58;5.43;;;3.37;;
20456;SDS011;10387;51.102;6.848;2023-07-16T11:49:27;6.60;;;4.00;;
20456;SDS011;10387;51.102;6.848;2023-07-16T11:51:53;4.57;;;3.30;;
20456;SDS011;10387;51.102;6.848;2023-07-16T11:54:22;5.23;;;3.73;;
20456;SDS011;10387;51.102;6.848;2023-07-16T11:56:48;3.60;;;3.23;;
20456;SDS011;10387;51.102;6.848;2023-07-16T11:59:15;3.87;;;3.13;;
20456;SDS011;10387;51.102;6.848;2023-07-16T12:01:51;5.03;;;3.60;;
20456;SDS011;10387;51.102;6.848;2023-07-16T12:04:20;6.63;;;3.70;;
20456;SDS011;10387;51.102;6.848;2023-07-16T12:06:46;3.90;;;2.83;;
20456;SDS011;10387;51.102;6.848;2023-07-16T12:09:12;6.40;;;3.53;;
20456;SDS011;10387;51.102;6.848;2023-07-16T12:11:41;3.83;;;3.35;;
20456;SDS011;10387;51.102;6.848;2023-07-16T12:14:07;5.93;;;4.97;;
20456;SDS011;10387;51.102;6.848;2023-07-16T12:16:34;10.80;;;8.60;;
20456;SDS011;10387;51.102;6.848;2023-07-16T12:19:00;6.17;;;5.23;;
20456;SDS011;10387;51.102;6.848;2023-07-16T12:21:26;6.43;;;5.03;;
20456;SDS011;10387;51.102;6.848;2023-07-16T12:23:53;6.03;;;4.33;;
20456;SDS011;10387;51.102;6.848;2023-07-16T12:26:19;6.57;;;5.15;;
20456;SDS011;10387;51.102;6.848;2023-07-16T12:28:52;4.80;;;3.60;;
20456;SDS011;10387;51.102;6.848;2023-07-16T12:31:19;6.53;;;3.63;;
20456;SDS011;10387;51.102;6.848;2023-07-16T12:33:48;4.90;;;3.45;;
20456;SDS011;10387;51.102;6.848;2023-07-16T12:36:14;4.57;;;3.50;;
20456;SDS011;10387;51.102;6.848;2023-07-16T12:38:41;4.00;;;3.60;;
20456;SDS011;10387;51.102;6.848;2023-07-16T12:41:08;5.77;;;3.60;;
20456;SDS011;10387;51.102;6.848;2023-07-16T12:43:34;6.60;;;5.43;;
20456;SDS011;10387;51.102;6.848;2023-07-16T12:46:01;10.13;;;8.47;;
20456;SDS011;10387;51.102;6.848;2023-07-16T12:48:30;5.63;;;3.90;;
20456;SDS011;10387;51.102;6.848;2023-07-16T12:50:56;3.83;;;3.42;;
20456;SDS011;10387;51.102;6.848;2023-07-16T12:53:23;8.60;;;5.60;;
20456;SDS011;10387;51.102;6.848;2023-07-16T12:55:49;8.67;;;4.83;;
20456;SDS011;10387;51.102;6.848;2023-07-16T12:58:16;6.90;;;5.35;;
20456;SDS011;10387;51.102;6.848;2023-07-16T13:00:43;6.05;;;3.22;;
20456;SDS011;10387;51.102;6.848;2023-07-16T13:03:09;5.55;;;4.20;;
20456;SDS011;10387;51.102;6.848;2023-07-16T13:05:37;7.30;;;4.18;;
20456;SDS011;10387;51.102;6.848;2023-07-16T13:08:03;5.13;;;3.33;;
20456;SDS011;10387;51.102;6.848;2023-07-16T13:10:30;6.82;;;3.50;;
20456;SDS011;10387;51.102;6.848;2023-07-16T13:12:56;3.10;;;2.50;;
20456;SDS011;10387;51.102;6.848;2023-07-16T13:15:22;3.20;;;2.65;;
20456;SDS011;10387;51.102;6.848;2023-07-16T13:17:48;4.82;;;3.40;;
20456;SDS011;10387;51.102;6.848;2023-07-16T13:20:14;4.72;;;3.22;;
20456;SDS011;10387;51.102;6.848;2023-07-16T13:22:40;5.87;;;3.63;;
20456;SDS011;10387;51.102;6.848;2023-07-16T13:25:07;3.13;;;2.83;;
20456;SDS011;10387;51.102;6.848;2023-07-16T13:27:34;4.40;;;3.07;;
20456;SDS011;10387;51.102;6.848;2023-07-16T13:30:00;4.18;;;3.30;;
20456;SDS011;10387;51.102;6.848;2023-07-16T13:32:26;4.20;;;3.10;;
20456;SDS011;10387;51.102;6.848;2023-07-16T13:34:53;5.47;;;3.20;;
20456;SDS011;10387;51.102;6.848;2023-07-16T13:37:19;4.50;;;3.00;;
20456;SDS011;10387;51.102;6.848;2023-07-16T13:39:45;6.63;;;3.05;;
20456;SDS011;10387;51.102;6.848;2023-07-16T13:42:11;3.22;;;2.60;;
20456;SDS011;10387;51.102;6.848;2023-07-16T13:44:37;4.32;;;3.30;;
20456;SDS011;10387;51.102;6.848;2023-07-16T13:47:04;3.28;;;2.67;;
20456;SDS011;10387;51.102;6.848;2023-07-16T13:49:30;6.50;;;2.97;;
20456;SDS011;10387;51.102;6.848;2023-07-16T13:51:56;7.13;;;2.67;;
20456;SDS011;10387;51.102;6.848;2023-07-16T13:54:22;3.75;;;3.05;;
20456;SDS011;10387;51.102;6.848;2023-07-16T13:56:48;3.83;;;2.72;;
20456;SDS011;10387;51.102;6.848;2023-07-16T13:59:15;3.85;;;2.58;;
20456;SDS011;10387;51.102;6.848;2023-07-16T14:01:41;3.97;;;3.03;;
20456;SDS011;10387;51.102;6.848;2023-07-16T14:04:07;3.30;;;2.55;;
20456;SDS011;10387;51.102;6.848;2023-07-16T14:06:33;5.05;;;2.42;;
20456;SDS011;10387;51.102;6.848;2023-07-16T14:08:59;3.70;;;2.65;;
20456;SDS011;10387;51.102;6.848;2023-07-16T14:11:25;4.10;;;2.75;;
20456;SDS011;10387;51.102;6.848;2023-07-16T14:13:52;5.05;;;3.42;;
20456;SDS011;10387;51.102;6.848;2023-07-16T14:16:21;3.97;;;2.70;;
20456;SDS011;10387;51.102;6.848;2023-07-16T14:18:49;5.25;;;3.22;;
20456;SDS011;10387;51.102;6.848;2023-07-16T14:21:15;5.15;;;2.90;;
20456;SDS011;10387;51.102;6.848;2023-07-16T14:23:41;5.80;;;2.97;;
20456;SDS011;10387;51.102;6.848;2023-07-16T14:26:07;3.67;;;2.75;;
20456;SDS011;10387;51.102;6.848;2023-07-16T14:28:33;4.55;;;2.58;;
20456;SDS011;10387;51.102;6.848;2023-07-16T14:30:59;3.35;;;2.80;;
20456;SDS011;10387;51.102;6.848;2023-07-16T14:33:26;3.38;;;2.90;;
20456;SDS011;10387;51.102;6.848;2023-07-16T14:35:53;3.13;;;2.60;;
20456;SDS011;10387;51.102;6.848;2023-07-16T14:38:19;3.65;;;2.92;;
20456;SDS011;10387;51.102;6.848;2023-07-16T14:40:45;3.50;;;2.60;;
20456;SDS011;10387;51.102;6.848;2023-07-16T14:43:13;4.45;;;2.80;;
20456;SDS011;10387;51.102;6.848;2023-07-16T14:45:39;6.00;;;2.70;;
20456;SDS011;10387;51.102;6.848;2023-07-16T14:48:05;4.18;;;2.60;;
20456;SDS011;10387;51.102;6.848;2023-07-16T14:50:32;4.22;;;2.65;;
20456;SDS011;10387;51.102;6.848;2023-07-16T14:52:58;4.22;;;2.67;;
20456;SDS011;10387;51.102;6.848;2023-07-16T14:55:24;4.30;;;3.05;;
20456;SDS011;10387;51.102;6.848;2023-07-16T14:57:50;5.03;;;2.80;;